Time;durP1;ratioP1;P1;durP2;ratioP2;P2;SDS_P1;SDS_P2;PMS_P1;PMS_P2;Temp;Humidity;BMP_temperature;BMP_pressure;BME280_temperature;BME280_humidity;BME280_pressure;Samples;Min_cycle;Max_cycle;Signal;HPM_P1;HPM_P2
2024/03/01 00:01:42;;;;;;;33.17;18.40;;;;;;;;;;4928436;29;20042;-87
2024/03/01 00:04:27;;;;;;;32.03;17.90;;;;;;;;;;4914513;29;20016;-87
2024/03/01 00:07:13;;;;;;;33.42;18.67;;;;;;;;;;4929600;29;20074;-87
2024/03/01 00:09:59;;;;;;;29.98;17.00;;;;;;;;;;4909977;29;20055;-88
2024/03/01 00:12:44;;;;;;;29.60;16.83;;;;;;;;;;4912279;29;20030;-88
2024/03/01 00:15:29;;;;;;;28.50;16.13;;;;;;;;;;4909975;29;20518;-87
2024/03/01 00:18:15;;;;;;;34.58;18.65;;;;;;;;;;4916783;29;20079;-88
2024/03/01 00:21:00;;;;;;;28.98;16.92;;;;;;;;;;4929139;29;20028;-88
2024/03/01 00:23:46;;;;;;;30.63;17.08;;;;;;;;;;4914080;29;20056;-88
2024/03/01 00:26:31;;;;;;;34.45;17.23;;;;;;;;;;4910182;29;20132;-88
2024/03/01 00:29:16;;;;;;;30.25;16.02;;;;;;;;;;4921870;29;20107;-88
2024/03/01 00:32:02;;;;;;;32.83;18.02;;;;;;;;;;4934890;29;20070;-88
2024/03/01 00:34:47;;;;;;;32.38;16.77;;;;;;;;;;4932548;29;20032;-88
2024/03/01 00:37:32;;;;;;;31.88;17.15;;;;;;;;;;4916568;29;20087;-88
2024/03/01 00:40:18;;;;;;;31.85;16.75;;;;;;;;;;4952271;29;20031;-89
2024/03/01 00:43:03;;;;;;;30.95;18.52;;;;;;;;;;4939425;29;20024;-89
2024/03/01 00:45:48;;;;;;;29.45;16.17;;;;;;;;;;4911705;29;20050;-88
2024/03/01 00:48:34;;;;;;;34.88;19.25;;;;;;;;;;4913864;29;20051;-88
2024/03/01 00:51:19;;;;;;;29.48;18.00;;;;;;;;;;4905569;29;20609;-88
2024/03/01 00:54:07;;;;;;;28.80;16.90;;;;;;;;;;4915872;29;20028;-88
2024/03/01 00:56:53;;;;;;;31.15;16.50;;;;;;;;;;4915663;29;20114;-88
2024/03/01 00:59:39;;;;;;;34.72;17.25;;;;;;;;;;4915921;29;20062;-88
2024/03/01 01:02:24;;;;;;;28.92;17.20;;;;;;;;;;4915439;29;20016;-89
2024/03/01 01:05:10;;;;;;;29.60;16.20;;;;;;;;;;4928253;29;20043;-88
2024/03/01 01:07:56;;;;;;;29.73;17.17;;;;;;;;;;4913707;29;20470;-89
2024/03/01 01:10:41;;;;;;;28.63;17.02;;;;;;;;;;4915195;29;20047;-89
2024/03/01 01:13:27;;;;;;;31.85;18.42;;;;;;;;;;4914626;29;20422;-89
2024/03/01 01:16:12;;;;;;;30.50;17.88;;;;;;;;;;4927351;29;20091;-89
2024/03/01 01:18:57;;;;;;;33.40;17.25;;;;;;;;;;4914721;29;20054;-88
2024/03/01 01:21:43;;;;;;;34.80;18.80;;;;;;;;;;4915721;29;20343;-88
2024/03/01 01:24:28;;;;;;;32.15;17.95;;;;;;;;;;4913194;29;20047;-88
2024/03/01 01:27:14;;;;;;;32.30;18.88;;;;;;;;;;4895602;29;20099;-88
2024/03/01 01:29:59;;;;;;;31.92;18.30;;;;;;;;;;4908914;29;20023;-89
2024/03/01 01:32:44;;;;;;;38.47;19.60;;;;;;;;;;4896214;29;20024;-88
2024/03/01 01:35:29;;;;;;;36.25;17.60;;;;;;;;;;4914373;29;20023;-88
2024/03/01 01:38:15;;;;;;;29.35;17.30;;;;;;;;;;4928303;29;20096;-88
2024/03/01 01:41:00;;;;;;;30.55;16.52;;;;;;;;;;4907508;29;20083;-88
2024/03/01 01:43:46;;;;;;;34.47;18.98;;;;;;;;;;4895817;29;20028;-88
2024/03/01 01:46:35;;;;;;;33.40;18.33;;;;;;;;;;4914443;29;20023;-88
2024/03/01 01:49:21;;;;;;;32.90;17.40;;;;;;;;;;4914084;29;20031;-88
2024/03/01 01:52:07;;;;;;;31.40;17.02;;;;;;;;;;4915284;29;20047;-88
2024/03/01 01:54:53;;;;;;;30.00;19.27;;;;;;;;;;4925789;29;20034;-88
2024/03/01 01:57:40;;;;;;;31.58;17.48;;;;;;;;;;4908128;29;20039;-88
2024/03/01 02:00:25;;;;;;;33.63;18.63;;;;;;;;;;4913999;29;20028;-88
2024/03/01 02:03:10;;;;;;;31.52;18.23;;;;;;;;;;4928175;29;20027;-89
2024/03/01 02:05:56;;;;;;;31.67;18.17;;;;;;;;;;4913738;29;20553;-88
2024/03/01 02:08:41;;;;;;;36.35;18.13;;;;;;;;;;4926182;29;20502;-88
2024/03/01 02:11:27;;;;;;;36.30;17.95;;;;;;;;;;4916050;29;20090;-88
2024/03/01 02:14:12;;;;;;;31.00;16.98;;;;;;;;;;4915850;29;20422;-88
2024/03/01 02:16:57;;;;;;;28.52;16.90;;;;;;;;;;4917957;29;20044;-89
2024/03/01 02:19:43;;;;;;;35.97;18.98;;;;;;;;;;4931164;29;20059;-88
2024/03/01 02:22:28;;;;;;;30.75;17.70;;;;;;;;;;4918664;29;20066;-88
2024/03/01 02:25:13;;;;;;;28.67;16.58;;;;;;;;;;4917298;29;20023;-88
2024/03/01 02:28:01;;;;;;;26.70;16.60;;;;;;;;;;4918290;29;20031;-88
2024/03/01 02:30:46;;;;;;;35.45;17.98;;;;;;;;;;4897761;29;20095;-88
2024/03/01 02:33:35;;;;;;;33.53;17.92;;;;;;;;;;4900073;29;20035;-88
2024/03/01 02:36:20;;;;;;;29.83;18.17;;;;;;;;;;4916927;29;20383;-88
2024/03/01 02:39:16;;;;;;;33.15;18.45;;;;;;;;;;4931286;29;20368;-89
2024/03/01 02:42:01;;;;;;;30.27;18.48;;;;;;;;;;4918021;29;20024;-88
2024/03/01 02:44:47;;;;;;;32.13;17.42;;;;;;;;;;4918389;29;20015;-88
2024/03/01 02:47:32;;;;;;;32.20;18.85;;;;;;;;;;4905669;29;20134;-88
2024/03/01 02:50:18;;;;;;;34.63;18.98;;;;;;;;;;4930950;29;20023;-89
2024/03/01 02:53:06;;;;;;;35.15;19.10;;;;;;;;;;4912939;29;20024;-89
2024/03/01 02:55:52;;;;;;;32.40;18.50;;;;;;;;;;4904151;29;20503;-89
2024/03/01 02:58:37;;;;;;;33.30;18.70;;;;;;;;;;4932800;29;20030;-88
2024/03/01 03:01:23;;;;;;;32.80;17.33;;;;;;;;;;4903612;29;20110;-88
2024/03/01 03:04:08;;;;;;;31.88;18.77;;;;;;;;;;4919532;29;20032;-88
2024/03/01 03:06:54;;;;;;;32.47;17.30;;;;;;;;;;4901192;29;20111;-89
2024/03/01 03:09:42;;;;;;;31.73;17.70;;;;;;;;;;4907718;29;20023;-88
2024/03/01 03:12:27;;;;;;;36.63;19.73;;;;;;;;;;4901033;29;20034;-88
2024/03/01 03:15:13;;;;;;;32.83;18.85;;;;;;;;;;4910022;29;20495;-88
2024/03/01 03:17:58;;;;;;;31.10;17.55;;;;;;;;;;4933117;29;20529;-88
2024/03/01 03:20:44;;;;;;;30.75;17.27;;;;;;;;;;4918984;29;20020;-89
2024/03/01 03:23:29;;;;;;;29.70;16.55;;;;;;;;;;4913629;29;20028;-88
2024/03/01 03:26:14;;;;;;;30.05;16.38;;;;;;;;;;4931324;29;20027;-88
2024/03/01 03:29:00;;;;;;;31.83;18.08;;;;;;;;;;4919679;29;20034;-89
2024/03/01 03:31:45;;;;;;;34.03;18.35;;;;;;;;;;4928545;29;20032;-89
2024/03/01 03:34:30;;;;;;;33.65;17.88;;;;;;;;;;4919641;29;20107;-89
2024/03/01 03:37:16;;;;;;;30.15;17.33;;;;;;;;;;4919599;29;20079;-89
2024/03/01 03:40:13;;;;;;;35.55;19.05;;;;;;;;;;4932167;29;20107;-89
2024/03/01 03:42:59;;;;;;;30.33;19.15;;;;;;;;;;4904553;29;20503;-88
2024/03/01 03:45:45;;;;;;;31.75;16.35;;;;;;;;;;4930745;29;20043;-89
2024/03/01 03:48:30;;;;;;;31.50;16.83;;;;;;;;;;4926750;29;20027;-89
2024/03/01 03:51:25;;;;;;;30.90;17.27;;;;;;;;;;4919406;29;20067;-89
2024/03/01 03:54:15;;;;;;;30.35;18.08;;;;;;;;;;4920116;29;20034;-88
2024/03/01 03:57:00;;;;;;;34.75;19.80;;;;;;;;;;4920007;29;20023;-88
2024/03/01 03:59:46;;;;;;;33.05;17.23;;;;;;;;;;4919309;29;20036;-85
2024/03/01 04:02:31;;;;;;;32.55;18.58;;;;;;;;;;4916197;29;20074;-88
2024/03/01 04:05:16;;;;;;;35.80;18.10;;;;;;;;;;4930033;29;20051;-88
2024/03/01 04:08:02;;;;;;;34.22;17.40;;;;;;;;;;4928914;29;20463;-88
2024/03/01 04:10:47;;;;;;;31.60;15.77;;;;;;;;;;4915572;29;20032;-89
2024/03/01 04:13:33;;;;;;;31.42;17.13;;;;;;;;;;4915610;29;20402;-88
2024/03/01 04:16:18;;;;;;;31.50;18.80;;;;;;;;;;4915876;29;20122;-88
2024/03/01 04:19:08;;;;;;;29.00;16.65;;;;;;;;;;4915118;29;20439;-88
2024/03/01 04:21:53;;;;;;;34.20;18.25;;;;;;;;;;4910178;29;20043;-88
2024/03/01 04:24:39;;;;;;;33.30;19.23;;;;;;;;;;4914191;29;20023;-88
2024/03/01 04:27:24;;;;;;;35.28;20.80;;;;;;;;;;4899046;29;20058;-88
2024/03/01 04:30:10;;;;;;;35.65;19.75;;;;;;;;;;4905171;29;20067;-88
2024/03/01 04:32:55;;;;;;;31.92;18.08;;;;;;;;;;4902099;29;20475;-88
2024/03/01 04:35:41;;;;;;;30.85;18.45;;;;;;;;;;4903025;29;20020;-89
2024/03/01 04:38:27;;;;;;;29.90;18.55;;;;;;;;;;4914124;29;20376;-89
2024/03/01 04:41:15;;;;;;;29.92;18.23;;;;;;;;;;4915408;29;20035;-89
2024/03/01 04:44:01;;;;;;;31.00;19.00;;;;;;;;;;4915608;29;20065;-89
2024/03/01 04:46:46;;;;;;;35.97;19.40;;;;;;;;;;4929617;29;20034;-89
2024/03/01 04:49:31;;;;;;;39.70;19.27;;;;;;;;;;4914906;29;20034;-89
2024/03/01 04:52:17;;;;;;;30.60;17.85;;;;;;;;;;4920317;29;20055;-90
2024/03/01 04:55:05;;;;;;;33.42;20.05;;;;;;;;;;4927146;29;20059;-90
2024/03/01 04:57:51;;;;;;;33.53;19.02;;;;;;;;;;4916257;29;20027;-87
2024/03/01 05:00:36;;;;;;;28.05;17.80;;;;;;;;;;4902075;29;20267;-87
2024/03/01 05:03:21;;;;;;;29.33;18.05;;;;;;;;;;4915673;29;20107;-87
2024/03/01 05:06:08;;;;;;;37.40;18.42;;;;;;;;;;4899744;29;20119;-87
2024/03/01 05:08:54;;;;;;;35.92;17.98;;;;;;;;;;4890042;29;20032;-87
2024/03/01 05:11:39;;;;;;;36.35;19.58;;;;;;;;;;4914957;29;20383;-86
2024/03/01 05:14:25;;;;;;;29.77;17.40;;;;;;;;;;4913266;29;20030;-87
2024/03/01 05:17:11;;;;;;;38.38;20.88;;;;;;;;;;4915215;29;20030;-87
2024/03/01 05:19:57;;;;;;;30.48;18.70;;;;;;;;;;4927269;29;20038;-83
2024/03/01 05:22:43;;;;;;;32.60;17.42;;;;;;;;;;4914532;29;20122;-82
2024/03/01 05:25:28;;;;;;;33.38;19.15;;;;;;;;;;4914509;29;20106;-82
2024/03/01 05:28:13;;;;;;;35.55;19.17;;;;;;;;;;4913651;29;20059;-83
2024/03/01 05:30:58;;;;;;;34.35;19.00;;;;;;;;;;4912427;29;20371;-83
2024/03/01 05:33:43;;;;;;;29.30;17.95;;;;;;;;;;4921361;29;20050;-82
2024/03/01 05:36:29;;;;;;;36.38;20.33;;;;;;;;;;4926443;29;20031;-82
2024/03/01 05:39:18;;;;;;;32.33;19.52;;;;;;;;;;4907654;29;20099;-82
2024/03/01 05:42:06;;;;;;;32.72;19.98;;;;;;;;;;4900819;29;20023;-81
2024/03/01 05:44:53;;;;;;;35.30;20.08;;;;;;;;;;4913674;29;20499;-80
2024/03/01 05:47:43;;;;;;;31.20;18.58;;;;;;;;;;4917797;29;20032;-79
2024/03/01 05:50:28;;;;;;;37.08;20.40;;;;;;;;;;4923687;29;20035;-81
2024/03/01 05:53:16;;;;;;;33.65;18.88;;;;;;;;;;4916995;29;20486;-79
2024/03/01 05:56:02;;;;;;;38.13;20.50;;;;;;;;;;4918392;29;20035;-81
2024/03/01 05:58:50;;;;;;;35.15;19.70;;;;;;;;;;4914311;29;20110;-82
2024/03/01 06:01:35;;;;;;;30.55;17.92;;;;;;;;;;4917230;29;20118;-85
2024/03/01 06:04:20;;;;;;;33.45;19.83;;;;;;;;;;4917637;29;20074;-83
2024/03/01 06:07:06;;;;;;;33.90;19.83;;;;;;;;;;4917621;29;20165;-85
2024/03/01 06:09:51;;;;;;;30.83;20.17;;;;;;;;;;4900786;29;20043;-84
2024/03/01 06:12:36;;;;;;;33.55;19.70;;;;;;;;;;4904580;29;20059;-83
2024/03/01 06:15:22;;;;;;;34.50;17.52;;;;;;;;;;4913819;29;20055;-83
2024/03/01 06:18:07;;;;;;;36.80;21.02;;;;;;;;;;4914228;29;20043;-83
2024/03/01 06:20:52;;;;;;;34.33;19.08;;;;;;;;;;4917847;29;20030;-83
2024/03/01 06:23:37;;;;;;;37.90;19.95;;;;;;;;;;4916857;29;20024;-84
2024/03/01 06:26:23;;;;;;;36.85;21.20;;;;;;;;;;4917740;29;20027;-84
2024/03/01 06:29:08;;;;;;;33.95;21.08;;;;;;;;;;4916895;29;20032;-83
2024/03/01 06:31:53;;;;;;;35.58;19.83;;;;;;;;;;4917522;29;20035;-83
2024/03/01 06:34:41;;;;;;;36.80;20.92;;;;;;;;;;4927619;29;20063;-84
2024/03/01 06:37:26;;;;;;;37.75;21.75;;;;;;;;;;4920751;29;20147;-84
2024/03/01 06:40:12;;;;;;;35.20;18.55;;;;;;;;;;4917470;29;20399;-83
2024/03/01 06:42:58;;;;;;;38.83;19.88;;;;;;;;;;4925477;29;20044;-83
2024/03/01 06:45:43;;;;;;;32.20;18.52;;;;;;;;;;4916750;29;20032;-83
2024/03/01 06:48:29;;;;;;;36.17;21.73;;;;;;;;;;4928524;29;20032;-83
2024/03/01 06:51:17;;;;;;;32.60;19.35;;;;;;;;;;4916832;29;20115;-83
2024/03/01 06:54:03;;;;;;;31.73;19.48;;;;;;;;;;4913429;29;20032;-83
2024/03/01 06:56:49;;;;;;;35.05;19.95;;;;;;;;;;4916845;29;20035;-83
2024/03/01 06:59:34;;;;;;;32.13;20.15;;;;;;;;;;4915942;29;20036;-83
2024/03/01 07:02:20;;;;;;;37.28;22.45;;;;;;;;;;4916385;29;20677;-83
2024/03/01 07:05:05;;;;;;;32.88;19.02;;;;;;;;;;4910369;29;20036;-83
2024/03/01 07:07:51;;;;;;;35.35;21.73;;;;;;;;;;4910715;29;20110;-83
2024/03/01 07:10:36;;;;;;;33.67;19.75;;;;;;;;;;4933619;29;20407;-83
2024/03/01 07:13:21;;;;;;;41.47;21.33;;;;;;;;;;4913225;29;20047;-84
2024/03/01 07:16:07;;;;;;;35.67;20.70;;;;;;;;;;4909887;29;20056;-83
2024/03/01 07:18:52;;;;;;;40.38;20.70;;;;;;;;;;4904650;29;20035;-84
2024/03/01 07:21:37;;;;;;;37.28;21.23;;;;;;;;;;4916933;29;20382;-83
2024/03/01 07:24:22;;;;;;;36.63;20.52;;;;;;;;;;4915661;29;20031;-83
2024/03/01 07:27:08;;;;;;;36.75;21.38;;;;;;;;;;4913378;29;20182;-83
2024/03/01 07:29:53;;;;;;;36.97;21.00;;;;;;;;;;4916053;29;20031;-84
2024/03/01 07:32:38;;;;;;;35.83;20.33;;;;;;;;;;4913835;29;20032;-84
2024/03/01 07:35:26;;;;;;;34.00;21.33;;;;;;;;;;4914339;29;20036;-83
2024/03/01 07:38:11;;;;;;;39.90;21.23;;;;;;;;;;4916099;29;20035;-84
2024/03/01 07:40:57;;;;;;;35.88;20.40;;;;;;;;;;4914874;29;20086;-83
2024/03/01 07:43:42;;;;;;;35.63;20.58;;;;;;;;;;4915339;29;20475;-84
2024/03/01 07:46:27;;;;;;;36.55;21.88;;;;;;;;;;4908369;29;20032;-84
2024/03/01 07:49:14;;;;;;;39.08;19.55;;;;;;;;;;4927686;29;20088;-84
2024/03/01 07:51:59;;;;;;;35.63;22.30;;;;;;;;;;4913085;29;20526;-84
2024/03/01 07:54:45;;;;;;;34.30;19.83;;;;;;;;;;4915844;29;20031;-85
2024/03/01 07:57:30;;;;;;;35.05;21.08;;;;;;;;;;4915554;29;20126;-85
2024/03/01 08:00:16;;;;;;;34.40;19.85;;;;;;;;;;4915811;29;21196;-84
2024/03/01 08:03:10;;;;;;;35.78;21.40;;;;;;;;;;4919980;29;20497;-84
2024/03/01 08:05:56;;;;;;;38.67;21.08;;;;;;;;;;4916040;29;20071;-84
2024/03/01 08:08:43;;;;;;;36.53;21.85;;;;;;;;;;4901645;29;20258;-84
2024/03/01 08:11:40;;;;;;;34.45;20.10;;;;;;;;;;4911345;29;20386;-84
2024/03/01 08:14:32;;;;;;;38.72;19.52;;;;;;;;;;4902523;29;20110;-85
2024/03/01 08:17:17;;;;;;;38.45;21.05;;;;;;;;;;4914038;29;20039;-84
2024/03/01 08:20:10;;;;;;;37.22;20.42;;;;;;;;;;4925831;29;20282;-84
2024/03/01 08:22:55;;;;;;;37.38;19.08;;;;;;;;;;4904481;29;20044;-84
2024/03/01 08:25:40;;;;;;;30.73;19.17;;;;;;;;;;4896356;29;20080;-84
2024/03/01 08:28:30;;;;;;;32.25;18.45;;;;;;;;;;4914818;29;20035;-85
2024/03/01 08:31:26;;;;;;;30.40;18.50;;;;;;;;;;4914931;29;20032;-84
2024/03/01 08:34:19;;;;;;;36.85;19.83;;;;;;;;;;4914510;29;20035;-85
2024/03/01 08:37:05;;;;;;;28.27;17.13;;;;;;;;;;4905614;29;20039;-84
2024/03/01 08:39:53;;;;;;;29.42;17.38;;;;;;;;;;4912565;29;20016;-85
2024/03/01 08:42:38;;;;;;;31.92;17.65;;;;;;;;;;4914563;29;20390;-85
2024/03/01 08:45:41;;;;;;;29.10;17.35;;;;;;;;;;4915531;29;20387;-85
2024/03/01 08:48:31;;;;;;;30.30;17.40;;;;;;;;;;4900219;29;20036;-85
2024/03/01 08:51:17;;;;;;;25.38;15.57;;;;;;;;;;4897384;29;20055;-85
2024/03/01 08:54:03;;;;;;;22.15;12.48;;;;;;;;;;4913226;29;20557;-85
2024/03/01 08:56:58;;;;;;;21.35;12.35;;;;;;;;;;4912688;29;20078;-84
2024/03/01 08:59:47;;;;;;;23.92;11.02;;;;;;;;;;4933961;29;20031;-85
2024/03/01 09:02:45;;;;;;;20.75;10.80;;;;;;;;;;4929884;29;20024;-85
2024/03/01 09:05:30;;;;;;;24.38;11.95;;;;;;;;;;4932537;29;20095;-85
2024/03/01 09:08:36;;;;;;;20.23;11.10;;;;;;;;;;4938091;29;20040;-85
2024/03/01 09:11:21;;;;;;;18.70;10.07;;;;;;;;;;4936483;29;20047;-85
2024/03/01 09:14:17;;;;;;;15.00;9.02;;;;;;;;;;4932920;29;20044;-85
2024/03/01 09:17:04;;;;;;;18.05;10.50;;;;;;;;;;4919106;29;20360;-85
2024/03/01 09:19:49;;;;;;;17.17;9.02;;;;;;;;;;4911842;29;20036;-84
2024/03/01 09:22:34;;;;;;;17.98;10.25;;;;;;;;;;4910117;29;20024;-85
2024/03/01 09:25:38;;;;;;;14.15;8.43;;;;;;;;;;4913939;29;20038;-85
2024/03/01 09:28:26;;;;;;;16.13;8.65;;;;;;;;;;4896961;29;20530;-84
2024/03/01 09:31:12;;;;;;;15.40;8.63;;;;;;;;;;4912350;29;20065;-84
2024/03/01 09:33:59;;;;;;;13.20;8.20;;;;;;;;;;4912334;29;20519;-84
2024/03/01 09:36:45;;;;;;;15.55;8.48;;;;;;;;;;4912945;29;20434;-84
2024/03/01 09:39:31;;;;;;;13.35;7.32;;;;;;;;;;4904683;29;20106;-85
2024/03/01 09:42:28;;;;;;;14.15;8.10;;;;;;;;;;4907942;29;20485;-84
2024/03/01 09:45:30;;;;;;;16.75;8.75;;;;;;;;;;4919926;29;20047;-85
2024/03/01 09:48:27;;;;;;;13.52;7.82;;;;;;;;;;4893848;29;20118;-84
2024/03/01 09:51:24;;;;;;;16.48;8.07;;;;;;;;;;4906368;29;20039;-84
2024/03/01 09:54:18;;;;;;;13.07;7.75;;;;;;;;;;4912711;29;20039;-85
2024/03/01 09:57:19;;;;;;;12.38;7.65;;;;;;;;;;4907827;29;20518;-84
2024/03/01 10:00:37;;;;;;;15.88;7.05;;;;;;;;;;4914051;29;20040;-84
2024/03/01 10:03:31;;;;;;;14.30;7.80;;;;;;;;;;4887787;29;20468;-84
2024/03/01 10:06:17;;;;;;;13.57;7.55;;;;;;;;;;4914160;29;20055;-84
2024/03/01 10:09:11;;;;;;;15.57;7.32;;;;;;;;;;4914446;29;20130;-85
2024/03/01 10:12:09;;;;;;;14.35;7.78;;;;;;;;;;4914205;29;20047;-85
2024/03/01 10:15:01;;;;;;;11.40;7.15;;;;;;;;;;4900237;29;20044;-84
2024/03/01 10:18:13;;;;;;;12.48;6.68;;;;;;;;;;4914044;29;20106;-84
2024/03/01 10:21:07;;;;;;;12.20;6.55;;;;;;;;;;4913618;29;20036;-84
2024/03/01 10:24:01;;;;;;;11.95;6.78;;;;;;;;;;4907174;29;20032;-84
2024/03/01 10:26:52;;;;;;;11.98;6.70;;;;;;;;;;4919812;29;20035;-84
2024/03/01 10:29:46;;;;;;;10.55;5.90;;;;;;;;;;4914554;29;20352;-84
2024/03/01 10:32:40;;;;;;;11.77;6.43;;;;;;;;;;4902276;29;20301;-83
2024/03/01 10:35:30;;;;;;;10.20;6.10;;;;;;;;;;4905421;29;20365;-84
2024/03/01 10:38:18;;;;;;;10.57;6.18;;;;;;;;;;4916397;29;20047;-84
2024/03/01 10:41:12;;;;;;;13.20;5.95;;;;;;;;;;4916876;29;20391;-84
2024/03/01 10:43:57;;;;;;;8.70;5.30;;;;;;;;;;4906885;29;20099;-84
2024/03/01 10:46:54;;;;;;;13.35;6.45;;;;;;;;;;4899254;29;20130;-84
2024/03/01 10:49:46;;;;;;;14.60;7.60;;;;;;;;;;4895023;29;20241;-84
2024/03/01 10:52:44;;;;;;;11.23;6.47;;;;;;;;;;4915944;29;20395;-84
2024/03/01 10:55:32;;;;;;;12.43;7.15;;;;;;;;;;4905226;29;20037;-82
2024/03/01 10:58:21;;;;;;;11.07;6.82;;;;;;;;;;4916900;29;20059;-83
2024/03/01 11:01:22;;;;;;;12.13;7.30;;;;;;;;;;4929627;29;20035;-83
2024/03/01 11:04:25;;;;;;;13.63;6.88;;;;;;;;;;4910621;29;20032;-82
2024/03/01 11:07:25;;;;;;;11.85;6.28;;;;;;;;;;4927469;29;20039;-83
2024/03/01 11:10:25;;;;;;;14.07;7.32;;;;;;;;;;4918447;29;20133;-84
2024/03/01 11:13:21;;;;;;;14.00;6.75;;;;;;;;;;4917135;29;20116;-83
2024/03/01 11:16:08;;;;;;;11.60;6.78;;;;;;;;;;4913490;29;20043;-83
2024/03/01 11:18:56;;;;;;;12.13;6.70;;;;;;;;;;4916979;29;20036;-83
2024/03/01 11:21:45;;;;;;;11.48;6.53;;;;;;;;;;4908256;29;20028;-83
2024/03/01 11:24:33;;;;;;;12.07;7.05;;;;;;;;;;4902374;29;20114;-82
2024/03/01 11:27:23;;;;;;;12.82;7.05;;;;;;;;;;4915589;29;20503;-83
2024/03/01 11:30:11;;;;;;;9.75;6.30;;;;;;;;;;4916336;29;20027;-83
2024/03/01 11:33:01;;;;;;;13.73;7.22;;;;;;;;;;4910524;29;20040;-83
2024/03/01 11:35:46;;;;;;;;;;;;;;;;;;4911297;29;20491;-83
2024/03/01 11:38:36;;;;;;;11.20;6.75;;;;;;;;;;4914028;29;19922;-83
2024/03/01 11:41:28;;;;;;;11.57;5.60;;;;;;;;;;4916477;29;20100;-83
2024/03/01 11:44:13;;;;;;;11.63;5.85;;;;;;;;;;4915864;29;20039;-83
2024/03/01 11:47:09;;;;;;;11.95;5.57;;;;;;;;;;4897018;29;20032;-83
2024/03/01 11:50:07;;;;;;;12.35;6.25;;;;;;;;;;4915724;29;20055;-82
2024/03/01 11:52:58;;;;;;;10.43;5.50;;;;;;;;;;4929068;29;20067;-82
2024/03/01 11:55:46;;;;;;;8.50;5.03;;;;;;;;;;4914006;29;20230;-82
2024/03/01 11:58:35;;;;;;;12.07;6.38;;;;;;;;;;4912612;29;20063;-82
2024/03/01 12:01:32;;;;;;;12.55;5.38;;;;;;;;;;4915321;29;20034;-82
2024/03/01 12:04:23;;;;;;;9.48;5.38;;;;;;;;;;4913724;29;20047;-82
2024/03/01 12:07:19;;;;;;;9.52;5.28;;;;;;;;;;4915902;29;20045;-83
2024/03/01 12:10:10;;;;;;;8.63;4.97;;;;;;;;;;4913350;29;20028;-83
2024/03/01 12:12:58;;;;;;;9.20;4.95;;;;;;;;;;4911827;29;20451;-82
2024/03/01 12:15:43;;;;;;;8.45;5.25;;;;;;;;;;4919541;29;20040;-83
2024/03/01 12:18:39;;;;;;;11.25;5.85;;;;;;;;;;4933292;29;20150;-82
2024/03/01 12:21:32;;;;;;;9.07;5.40;;;;;;;;;;4943077;29;20030;-83
2024/03/01 12:24:23;;;;;;;8.70;4.78;;;;;;;;;;4906581;29;20041;-83
2024/03/01 12:27:11;;;;;;;8.48;5.60;;;;;;;;;;4915452;29;20572;-83
2024/03/01 12:30:09;;;;;;;7.63;4.95;;;;;;;;;;4914843;29;20530;-83
2024/03/01 12:32:54;;;;;;;10.32;5.60;;;;;;;;;;4907206;29;20554;-82
2024/03/01 12:35:39;;;;;;;8.30;4.70;;;;;;;;;;4928976;29;20028;-83
2024/03/01 12:38:27;;;;;;;8.57;4.28;;;;;;;;;;4926592;29;20126;-83
2024/03/01 12:41:19;;;;;;;9.93;5.20;;;;;;;;;;4914443;29;20038;-84
2024/03/01 12:44:24;;;;;;;12.23;5.00;;;;;;;;;;4910038;29;20543;-83
2024/03/01 12:47:28;;;;;;;8.25;4.32;;;;;;;;;;4913967;29;20031;-83
2024/03/01 12:50:20;;;;;;;9.60;4.72;;;;;;;;;;4914505;29;20023;-83
2024/03/01 12:53:09;;;;;;;8.63;4.28;;;;;;;;;;4913796;29;20034;-83
2024/03/01 12:56:16;;;;;;;7.88;4.90;;;;;;;;;;4914257;29;20043;-83
2024/03/01 12:59:21;;;;;;;9.57;5.18;;;;;;;;;;4899639;29;20055;-83
2024/03/01 13:02:25;;;;;;;7.50;4.10;;;;;;;;;;4927678;29;20063;-83
2024/03/01 13:05:27;;;;;;;6.78;3.70;;;;;;;;;;4926401;29;20030;-83
2024/03/01 13:08:39;;;;;;;7.05;4.10;;;;;;;;;;4914598;29;20156;-83
2024/03/01 13:11:26;;;;;;;7.13;3.97;;;;;;;;;;4897245;29;20060;-83
2024/03/01 13:14:33;;;;;;;5.75;3.72;;;;;;;;;;4915539;29;20024;-83
2024/03/01 13:17:25;;;;;;;20.17;12.82;;;;;;;;;;4914266;29;20581;-83
2024/03/01 13:20:28;;;;;;;23.48;13.43;;;;;;;;;;4913810;29;20039;-83
2024/03/01 13:23:13;;;;;;;24.90;15.02;;;;;;;;;;4920053;29;20138;-83
2024/03/01 13:26:18;;;;;;;24.33;15.32;;;;;;;;;;4895764;29;20156;-82
2024/03/01 13:29:05;;;;;;;21.92;12.80;;;;;;;;;;4892810;29;20487;-83
2024/03/01 13:32:00;;;;;;;23.38;12.95;;;;;;;;;;4911113;29;20058;-83
2024/03/01 13:34:49;;;;;;;19.33;12.73;;;;;;;;;;4913512;29;20039;-84
2024/03/01 13:37:40;;;;;;;18.75;12.02;;;;;;;;;;4915050;29;20047;-84
2024/03/01 13:40:30;;;;;;;19.13;13.30;;;;;;;;;;4925133;29;20058;-83
2024/03/01 13:43:23;;;;;;;22.67;14.73;;;;;;;;;;4908022;29;20035;-83
2024/03/01 13:46:15;;;;;;;19.90;12.98;;;;;;;;;;4914271;29;20039;-83
2024/03/01 13:49:04;;;;;;;23.02;13.40;;;;;;;;;;4905199;29;20357;-83
2024/03/01 13:51:50;;;;;;;23.48;14.30;;;;;;;;;;4895514;29;20104;-84
2024/03/01 13:54:36;;;;;;;20.50;12.50;;;;;;;;;;4913098;29;20122;-84
2024/03/01 13:57:24;;;;;;;23.52;14.88;;;;;;;;;;4911120;29;20027;-84
2024/03/01 14:00:19;;;;;;;23.65;13.52;;;;;;;;;;4927526;29;20039;-83
2024/03/01 14:03:05;;;;;;;19.83;13.32;;;;;;;;;;4915415;29;20024;-82
2024/03/01 14:05:54;;;;;;;23.63;14.70;;;;;;;;;;4913167;29;20024;-83
2024/03/01 14:08:39;;;;;;;19.80;13.63;;;;;;;;;;4927920;29;20419;-83
2024/03/01 14:11:26;;;;;;;21.63;14.07;;;;;;;;;;4918099;29;20060;-83
2024/03/01 14:14:11;;;;;;;20.33;13.90;;;;;;;;;;4930213;29;20035;-84
2024/03/01 14:16:58;;;;;;;23.98;14.55;;;;;;;;;;4904754;29;20404;-83
2024/03/01 14:19:43;;;;;;;26.20;14.93;;;;;;;;;;4898987;29;20472;-83
2024/03/01 14:22:28;;;;;;;24.83;14.63;;;;;;;;;;4898681;29;20027;-83
2024/03/01 14:25:19;;;;;;;24.90;14.60;;;;;;;;;;4924994;29;20031;-82
2024/03/01 14:28:08;;;;;;;25.60;15.20;;;;;;;;;;4916545;29;20020;-82
2024/03/01 14:30:53;;;;;;;21.50;14.20;;;;;;;;;;4903592;29;20063;-84
2024/03/01 14:33:45;;;;;;;17.20;12.18;;;;;;;;;;4917369;29;20019;-85
2024/03/01 14:36:30;;;;;;;20.60;11.20;;;;;;;;;;4916335;29;20467;-83
2024/03/01 14:39:25;;;;;;;19.33;12.25;;;;;;;;;;4910542;29;20035;-83
2024/03/01 14:42:21;;;;;;;17.17;10.50;;;;;;;;;;4916895;29;20807;-83
2024/03/01 14:45:16;;;;;;;20.75;11.23;;;;;;;;;;4931103;29;20296;-82
2024/03/01 14:48:02;;;;;;;17.42;11.30;;;;;;;;;;4916914;29;20475;-81
2024/03/01 14:50:56;;;;;;;19.05;10.60;;;;;;;;;;4904023;29;20032;-83
2024/03/01 14:53:45;;;;;;;17.80;11.07;;;;;;;;;;4907551;29;20380;-81
2024/03/01 14:56:31;;;;;;;15.13;10.25;;;;;;;;;;4909595;29;20035;-83
2024/03/01 14:59:17;;;;;;;14.07;9.45;;;;;;;;;;4913979;29;20043;-83
2024/03/01 15:02:03;;;;;;;16.73;10.38;;;;;;;;;;4916532;29;20039;-83
2024/03/01 15:04:48;;;;;;;16.38;10.02;;;;;;;;;;4930211;29;20391;-82
2024/03/01 15:07:33;;;;;;;19.52;11.00;;;;;;;;;;4915465;29;20086;-83
2024/03/01 15:10:22;;;;;;;13.80;8.95;;;;;;;;;;4917164;29;20040;-82
2024/03/01 15:13:07;;;;;;;16.90;10.30;;;;;;;;;;4916429;29;20127;-83
2024/03/01 15:15:53;;;;;;;17.27;10.15;;;;;;;;;;4915600;29;20062;-82
2024/03/01 15:18:41;;;;;;;17.50;10.82;;;;;;;;;;4915384;29;20027;-82
2024/03/01 15:21:26;;;;;;;18.20;11.15;;;;;;;;;;4915237;29;20030;-83
2024/03/01 15:24:19;;;;;;;17.33;11.05;;;;;;;;;;4916980;29;20024;-82
2024/03/01 15:27:04;;;;;;;17.80;10.95;;;;;;;;;;4915517;29;20035;-83
2024/03/01 15:29:49;;;;;;;15.63;10.02;;;;;;;;;;4929241;29;20031;-83
2024/03/01 15:32:34;;;;;;;16.60;9.80;;;;;;;;;;4915956;29;20066;-82
2024/03/01 15:35:20;;;;;;;18.70;11.32;;;;;;;;;;4916340;29;20039;-82
2024/03/01 15:38:08;;;;;;;18.50;11.40;;;;;;;;;;4915561;29;20027;-82
2024/03/01 15:40:55;;;;;;;18.85;10.68;;;;;;;;;;4916273;29;20341;-82
2024/03/01 15:43:45;;;;;;;14.68;9.15;;;;;;;;;;4916588;29;20383;-82
2024/03/01 15:46:34;;;;;;;14.35;9.23;;;;;;;;;;4916153;29;20059;-82
2024/03/01 15:49:22;;;;;;;18.20;10.13;;;;;;;;;;4914868;29;20119;-82
2024/03/01 15:52:10;;;;;;;15.00;10.02;;;;;;;;;;4928704;29;20035;-81
2024/03/01 15:55:02;;;;;;;16.52;9.52;;;;;;;;;;4910791;29;20036;-82
2024/03/01 15:57:48;;;;;;;16.33;10.02;;;;;;;;;;4904015;29;20024;-83
2024/03/01 16:00:33;;;;;;;16.10;9.65;;;;;;;;;;4929236;29;20482;-82
2024/03/01 16:03:19;;;;;;;17.70;10.40;;;;;;;;;;4915485;29;20074;-81
2024/03/01 16:06:05;;;;;;;17.35;10.32;;;;;;;;;;4916074;29;20038;-83
2024/03/01 16:08:51;;;;;;;16.63;10.02;;;;;;;;;;4913400;29;20029;-83
2024/03/01 16:11:40;;;;;;;16.45;10.38;;;;;;;;;;4915990;29;20800;-83
2024/03/01 16:14:28;;;;;;;17.10;11.30;;;;;;;;;;4901969;29;20038;-82
2024/03/01 16:17:14;;;;;;;18.55;10.73;;;;;;;;;;4915254;29;20032;-82
2024/03/01 16:19:59;;;;;;;16.80;11.25;;;;;;;;;;4907329;29;20035;-83
2024/03/01 16:22:47;;;;;;;18.58;10.98;;;;;;;;;;4903665;29;20039;-84
2024/03/01 16:25:33;;;;;;;20.17;12.23;;;;;;;;;;4913947;29;20040;-82